createdAt,value
2023-04-01T00:01:50.703Z,13.71
2023-04-01T00:06:50.954Z,13.70
2023-04-01T00:11:49.788Z,13.58
2023-04-01T00:16:49.152Z,13.56
2023-04-01T00:21:49.197Z,13.77
2023-04-01T00:26:50.025Z,14.06
2023-04-01T00:31:50.372Z,14.03
2023-04-01T00:36:49.199Z,14.24
2023-04-01T00:41:49.821Z,14.42
2023-04-01T00:46:48.784Z,14.51
2023-04-01T00:51:49.231Z,14.55
2023-04-01T00:56:56.918Z,14.54
2023-04-01T01:01:56.259Z,14.53
2023-04-01T01:07:18.262Z,14.51
2023-04-01T01:12:21.233Z,14.49
2023-04-01T01:17:38.274Z,14.35
2023-04-01T01:23:01.568Z,14.29
2023-04-01T01:28:17.741Z,14.22
2023-04-01T01:33:35.551Z,14.18
2023-04-01T01:38:37.971Z,14.12
2023-04-01T01:43:42.614Z,14.09
2023-04-01T01:48:44.365Z,14.06
2023-04-01T01:53:45.108Z,14.02
2023-04-01T01:58:47.976Z,14.00
2023-04-01T02:03:50.726Z,13.95
2023-04-01T02:08:57.933Z,13.90
2023-04-01T02:14:02.473Z,13.86
2023-04-01T02:19:03.739Z,13.85
2023-04-01T02:24:08.069Z,13.84
2023-04-01T02:29:10.802Z,13.78
2023-04-01T02:34:09.972Z,13.68
2023-04-01T02:39:10.724Z,13.64
2023-04-01T02:44:10.297Z,13.58
2023-04-01T02:49:09.848Z,13.53
2023-04-01T02:54:10.104Z,13.48
2023-04-01T02:59:09.233Z,13.34
2023-04-01T03:04:08.132Z,13.28
2023-04-01T03:09:07.041Z,13.21
2023-04-01T03:14:08.107Z,13.18
2023-04-01T03:19:07.110Z,13.03
2023-04-01T03:24:07.298Z,12.95
2023-04-01T03:29:07.614Z,12.87
2023-04-01T03:34:06.599Z,12.76
2023-04-01T03:39:06.242Z,12.80
2023-04-01T03:44:14.515Z,12.79
2023-04-01T03:49:13.990Z,12.76
2023-04-01T03:54:13.427Z,12.82
2023-04-01T03:59:14.207Z,12.79
2023-04-01T04:04:15.799Z,12.76
2023-04-01T04:09:15.856Z,12.75
2023-04-01T04:14:16.717Z,12.75
2023-04-01T04:19:18.757Z,12.79
2023-04-01T04:24:17.839Z,12.83
2023-04-01T04:29:38.436Z,12.79
2023-04-01T04:34:45.478Z,12.84
2023-04-01T04:39:44.686Z,12.93
2023-04-01T04:44:45.252Z,12.96
2023-04-01T04:49:44.540Z,12.82
2023-04-01T04:54:43.813Z,12.89
2023-04-01T04:59:44.842Z,13.06
2023-04-01T05:05:03.895Z,12.95
2023-04-01T05:10:02.924Z,13.01
2023-04-01T05:15:03.357Z,13.06
2023-04-01T05:20:03.646Z,13.07
2023-04-01T05:25:02.602Z,13.20
2023-04-01T05:30:03.484Z,13.35
2023-04-01T05:35:15.782Z,13.39
2023-04-01T05:40:15.423Z,13.57
2023-04-01T05:45:16.899Z,13.57
2023-04-01T05:50:43.457Z,13.76
2023-04-01T05:55:43.953Z,14.00
2023-04-01T06:00:44.958Z,14.10
2023-04-01T06:05:46.623Z,14.32
2023-04-01T06:10:55.450Z,14.52
2023-04-01T06:16:07.316Z,14.76
2023-04-01T06:21:17.024Z,14.85
2023-04-01T06:26:36.920Z,15.02
2023-04-01T06:32:04.444Z,15.09
2023-04-01T06:37:21.898Z,15.20
2023-04-01T06:42:55.108Z,15.39
2023-04-01T06:48:41.542Z,15.23
2023-04-01T06:54:05.994Z,15.28
2023-04-01T06:59:27.526Z,15.37
2023-04-01T07:04:32.925Z,15.54
2023-04-01T07:09:37.424Z,15.59
2023-04-01T07:15:21.781Z,15.66
2023-04-01T07:20:28.863Z,15.65
2023-04-01T07:25:34.008Z,15.58
2023-04-01T07:31:14.498Z,15.61
2023-04-01T07:36:27.664Z,15.54
2023-04-01T07:41:34.585Z,15.38
2023-04-01T07:47:01.624Z,15.43
2023-04-01T07:52:08.669Z,15.52
2023-04-01T07:57:19.444Z,15.58
2023-04-01T08:02:34.265Z,16.18
2023-04-01T08:07:45.086Z,16.28
2023-04-01T08:13:16.641Z,16.28
2023-04-01T08:18:49.163Z,16.31
2023-04-01T08:23:53.576Z,16.26
2023-04-01T08:28:56.698Z,16.25
2023-04-01T08:34:21.206Z,16.35
2023-04-01T08:39:33.499Z,16.57
2023-04-01T08:45:23.131Z,16.48
2023-04-01T08:51:03.121Z,16.60
2023-04-01T08:56:17.538Z,16.78
2023-04-01T09:01:41.864Z,17.05
2023-04-01T09:07:42.104Z,17.25
2023-04-01T09:12:58.426Z,17.19
2023-04-01T09:18:41.886Z,17.27
2023-04-01T09:23:58.492Z,17.40
2023-04-01T09:29:12.148Z,17.58
2023-04-01T09:34:41.189Z,17.54
2023-04-01T09:39:49.123Z,17.73
2023-04-01T09:44:59.766Z,17.86
2023-04-01T09:50:16.465Z,17.81
2023-04-01T09:55:51.108Z,17.83
2023-04-01T10:01:14.057Z,18.00
2023-04-01T10:06:20.024Z,18.79
2023-04-01T10:11:51.216Z,18.61
2023-04-01T10:17:21.520Z,18.92
2023-04-01T10:22:34.793Z,18.96
2023-04-01T10:27:57.548Z,19.23
2023-04-01T10:34:02.554Z,19.51
2023-04-01T10:39:37.863Z,19.76
2023-04-01T10:45:29.499Z,20.46
2023-04-01T10:50:50.059Z,20.49
2023-04-01T10:56:31.911Z,20.15
2023-04-01T11:02:14.653Z,20.11
2023-04-01T11:08:16.550Z,19.99
2023-04-01T11:13:51.346Z,19.76
2023-04-01T11:19:27.332Z,19.52
2023-04-01T11:24:46.299Z,19.03
2023-04-01T11:30:18.341Z,19.09
2023-04-01T11:35:54.184Z,19.42
2023-04-01T11:41:02.245Z,18.89
2023-04-01T11:46:13.289Z,18.91
2023-04-01T11:51:31.274Z,18.93
2023-04-01T11:56:44.011Z,19.62
2023-04-01T12:01:49.933Z,20.17
2023-04-01T12:06:55.903Z,20.49
2023-04-01T12:12:13.309Z,20.69
2023-04-01T12:17:24.281Z,21.00
2023-04-01T12:22:36.936Z,21.39
2023-04-01T12:27:43.772Z,22.23
2023-04-01T12:32:49.294Z,22.63
2023-04-01T12:37:58.215Z,23.06
2023-04-01T12:43:14.837Z,22.98
2023-04-01T12:48:39.914Z,22.76
2023-04-01T12:53:53.388Z,22.85
2023-04-01T12:59:24.613Z,22.51
2023-04-01T13:05:16.727Z,22.33
2023-04-01T13:10:27.600Z,22.11
2023-04-01T13:15:31.617Z,21.78
2023-04-01T13:20:46.815Z,21.58
2023-04-01T13:26:06.823Z,21.14
2023-04-01T13:31:23.592Z,21.04
2023-04-01T13:36:35.760Z,20.83
2023-04-01T13:41:53.333Z,20.58
2023-04-01T13:47:07.334Z,20.46
2023-04-01T13:52:27.494Z,20.46
2023-04-01T13:57:45.645Z,20.24
2023-04-01T14:03:03.788Z,19.98
2023-04-01T14:08:10.645Z,19.79
2023-04-01T14:13:16.441Z,19.73
2023-04-01T14:18:41.675Z,19.24
2023-04-01T14:23:53.819Z,18.85
2023-04-01T14:29:02.347Z,18.32
2023-04-01T14:34:13.692Z,18.20
2023-04-01T14:39:31.662Z,17.78
2023-04-01T14:45:02.946Z,17.71
2023-04-01T14:50:11.908Z,17.23
2023-04-01T14:55:28.638Z,17.25
2023-04-01T15:00:27.571Z,17.14
2023-04-01T15:05:35.570Z,17.16
2023-04-01T15:10:55.685Z,16.90
2023-04-01T15:16:13.101Z,16.55
2023-04-01T15:21:35.697Z,16.50
2023-04-01T15:26:56.432Z,16.78
2023-04-01T15:32:01.732Z,16.74
2023-04-01T15:37:06.753Z,16.82
2023-04-01T15:42:26.014Z,16.81
2023-04-01T15:47:35.812Z,16.70
2023-04-01T15:52:44.561Z,16.68
2023-04-01T15:57:55.181Z,16.65
2023-04-01T16:03:09.932Z,16.58
2023-04-01T16:08:21.979Z,16.55
2023-04-01T16:13:30.694Z,16.52
2023-04-01T16:18:52.612Z,16.50
2023-04-01T16:23:55.998Z,16.46
2023-04-01T16:29:05.600Z,16.35
2023-04-01T16:34:10.818Z,16.21
2023-04-01T16:39:23.073Z,15.84
2023-04-01T16:44:26.294Z,15.74
2023-04-01T16:49:38.786Z,15.44
2023-04-01T16:54:42.021Z,15.50
2023-04-01T16:59:48.881Z,15.53
2023-04-01T17:04:50.243Z,15.62
2023-04-01T17:10:02.429Z,15.72
2023-04-01T17:15:14.316Z,15.75
2023-04-01T17:20:36.180Z,15.78
2023-04-01T17:25:48.204Z,15.63
2023-04-01T17:30:57.494Z,15.49
2023-04-01T17:36:01.436Z,15.25
2023-04-01T17:41:07.307Z,14.92
2023-04-01T17:46:27.356Z,14.85
2023-04-01T17:51:35.169Z,14.86
2023-04-01T17:56:47.657Z,15.00
2023-04-01T18:01:57.481Z,15.12
2023-04-01T18:07:27.036Z,15.17
2023-04-01T18:12:37.148Z,15.18
2023-04-01T18:17:47.272Z,15.21
2023-04-01T18:22:49.311Z,15.20
2023-04-01T18:27:52.728Z,15.16
2023-04-01T18:32:59.147Z,15.11
2023-04-01T18:38:02.989Z,15.02
2023-04-01T18:43:14.245Z,14.81
2023-04-01T18:48:40.148Z,14.47
2023-04-01T18:53:44.892Z,14.41
2023-04-01T18:58:51.148Z,14.06
2023-04-01T19:04:03.955Z,14.03
2023-04-01T19:09:19.092Z,13.99
2023-04-01T19:14:27.175Z,13.78
2023-04-01T19:19:55.589Z,13.44
2023-04-01T19:25:22.817Z,13.57
2023-04-01T19:30:38.420Z,13.54
2023-04-01T19:35:47.501Z,13.46
2023-04-01T19:40:55.315Z,13.49
2023-04-01T19:46:01.005Z,13.20
2023-04-01T19:51:08.426Z,13.31
2023-04-01T19:56:17.494Z,13.28
2023-04-01T20:01:27.171Z,12.89
2023-04-01T20:06:39.378Z,12.64
2023-04-01T20:11:52.450Z,12.48
2023-04-01T20:17:01.954Z,12.68
2023-04-01T20:22:05.290Z,12.82
2023-04-01T20:27:10.426Z,12.73
2023-04-01T20:32:27.603Z,12.38
2023-04-01T20:37:38.058Z,12.10
2023-04-01T20:42:49.866Z,11.83
2023-04-01T20:48:05.203Z,11.74
2023-04-01T20:53:13.733Z,11.69
2023-04-01T20:58:21.509Z,11.94
2023-04-01T21:03:32.072Z,11.86
2023-04-01T21:08:42.874Z,11.73
2023-04-01T21:13:59.307Z,11.63
2023-04-01T21:19:10.530Z,11.66
2023-04-01T21:24:45.639Z,11.42
2023-04-01T21:29:55.519Z,11.48
2023-04-01T21:35:00.467Z,11.29
2023-04-01T21:40:35.970Z,11.27
2023-04-01T21:46:00.901Z,10.97
2023-04-01T21:51:28.676Z,11.05
2023-04-01T21:57:14.223Z,10.99
2023-04-01T22:02:44.410Z,10.98
2023-04-01T22:07:50.029Z,10.71
2023-04-01T22:12:57.027Z,10.59
2023-04-01T22:18:05.411Z,10.59
2023-04-01T22:23:14.130Z,10.56
2023-04-01T22:28:21.041Z,10.54
2023-04-01T22:33:28.807Z,10.72
2023-04-01T22:38:39.821Z,10.58
2023-04-01T22:43:42.260Z,10.47
2023-04-01T22:48:46.347Z,10.39
2023-04-01T22:53:59.724Z,10.38
2023-04-01T22:59:05.424Z,10.30
2023-04-01T23:04:07.454Z,10.40
2023-04-01T23:09:13.503Z,10.44
2023-04-01T23:14:47.605Z,10.30
2023-04-01T23:19:51.985Z,10.31
2023-04-01T23:24:55.454Z,10.37
2023-04-01T23:29:55.640Z,10.36
2023-04-01T23:34:56.170Z,10.24
2023-04-01T23:39:56.866Z,10.19
2023-04-01T23:44:59.415Z,10.15
2023-04-01T23:50:03.127Z,10.15
2023-04-01T23:55:13.683Z,10.04
